createdAt,value
2023-07-24T00:01:56.537Z,70.95
2023-07-24T00:04:23.835Z,71.09
2023-07-24T00:06:51.185Z,70.93
2023-07-24T00:09:18.686Z,70.71
2023-07-24T00:11:46.154Z,70.76
2023-07-24T00:14:13.911Z,70.20
2023-07-24T00:16:41.478Z,70.02
2023-07-24T00:19:09.128Z,70.02
2023-07-24T00:21:36.775Z,69.28
2023-07-24T00:24:04.276Z,69.65
2023-07-24T00:26:31.849Z,70.07
2023-07-24T00:29:00.795Z,69.94
2023-07-24T00:31:28.076Z,69.87
2023-07-24T00:33:55.500Z,69.91
2023-07-24T00:36:23.272Z,70.27
2023-07-24T00:38:50.701Z,70.77
2023-07-24T00:41:18.057Z,70.82
2023-07-24T00:43:45.529Z,70.82
2023-07-24T00:46:12.913Z,70.86
2023-07-24T00:48:40.422Z,70.79
2023-07-24T00:51:08.801Z,70.84
2023-07-24T00:53:36.167Z,70.54
2023-07-24T00:56:03.528Z,71.65
2023-07-24T00:58:31.158Z,70.96
2023-07-24T01:00:58.629Z,71.07
2023-07-24T01:03:32.301Z,70.89
2023-07-24T01:06:00.971Z,70.83
2023-07-24T01:08:28.710Z,70.87
2023-07-24T01:11:03.560Z,70.66
2023-07-24T01:13:32.732Z,70.99
2023-07-24T01:16:02.120Z,71.12
2023-07-24T01:18:29.938Z,71.56
2023-07-24T01:20:58.300Z,70.98
2023-07-24T01:23:38.066Z,71.19
2023-07-24T01:26:06.270Z,71.28
2023-07-24T01:28:33.650Z,71.29
2023-07-24T01:31:01.095Z,71.29
2023-07-24T01:33:28.503Z,71.66
2023-07-24T01:35:58.201Z,71.71
2023-07-24T01:38:26.690Z,71.95
2023-07-24T01:40:54.901Z,71.80
2023-07-24T01:43:23.093Z,71.42
2023-07-24T01:45:50.527Z,71.28
2023-07-24T01:48:19.405Z,71.26
2023-07-24T01:50:46.915Z,71.81
2023-07-24T01:53:14.292Z,70.90
2023-07-24T01:55:41.957Z,71.16
2023-07-24T01:58:10.141Z,71.63
2023-07-24T02:00:40.621Z,71.85
2023-07-24T02:03:08.221Z,72.33
2023-07-24T02:05:36.741Z,72.80
2023-07-24T02:08:04.346Z,73.25
2023-07-24T02:10:31.780Z,73.60
2023-07-24T02:12:59.134Z,73.60
2023-07-24T02:15:26.527Z,73.45
2023-07-24T02:17:54.550Z,74.27
2023-07-24T02:20:22.366Z,74.50
2023-07-24T02:22:50.464Z,74.51
2023-07-24T02:25:18.004Z,74.72
2023-07-24T02:27:45.338Z,75.11
2023-07-24T02:30:12.895Z,75.12
2023-07-24T02:32:40.417Z,75.35
2023-07-24T02:35:08.277Z,75.53
2023-07-24T02:37:35.719Z,75.84
2023-07-24T02:40:03.348Z,75.92
2023-07-24T02:42:30.858Z,75.87
2023-07-24T02:44:58.589Z,76.26
2023-07-24T02:47:26.073Z,76.17
2023-07-24T02:49:53.774Z,76.52
2023-07-24T02:52:21.093Z,76.29
2023-07-24T02:54:48.684Z,76.44
2023-07-24T02:57:16.047Z,76.72
2023-07-24T02:59:44.311Z,76.85
2023-07-24T03:02:12.439Z,77.10
2023-07-24T03:04:39.915Z,77.16
2023-07-24T03:07:07.232Z,77.29
2023-07-24T03:09:36.374Z,77.39
2023-07-24T03:12:03.849Z,77.37
2023-07-24T03:14:31.484Z,77.08
2023-07-24T03:17:00.611Z,76.79
2023-07-24T03:19:29.707Z,76.56
2023-07-24T03:21:57.524Z,76.28
2023-07-24T03:24:24.963Z,76.24
2023-07-24T03:26:52.603Z,75.72
2023-07-24T03:29:21.821Z,75.35
2023-07-24T03:31:49.224Z,75.66
2023-07-24T03:34:20.107Z,75.72
2023-07-24T03:36:47.462Z,75.33
2023-07-24T03:39:15.091Z,75.20
2023-07-24T03:41:42.950Z,74.83
2023-07-24T03:44:10.317Z,75.08
2023-07-24T03:46:37.690Z,75.17
2023-07-24T03:49:05.053Z,74.79
2023-07-24T03:51:33.467Z,74.40
2023-07-24T03:54:00.792Z,74.81
2023-07-24T03:56:31.826Z,74.32
2023-07-24T03:59:00.858Z,74.44
2023-07-24T04:01:28.428Z,74.59
2023-07-24T04:03:56.022Z,74.75
2023-07-24T04:06:24.578Z,75.02
2023-07-24T04:08:52.339Z,74.93
2023-07-24T04:11:19.888Z,74.80
2023-07-24T04:13:47.250Z,74.55
2023-07-24T04:16:14.588Z,74.24
2023-07-24T04:18:41.931Z,75.81
2023-07-24T04:21:09.374Z,76.19
2023-07-24T04:23:38.186Z,76.90
2023-07-24T04:26:05.961Z,77.44
2023-07-24T04:28:33.390Z,78.31
2023-07-24T04:31:02.726Z,78.96
2023-07-24T04:33:30.290Z,79.54
2023-07-24T04:35:59.029Z,79.35
2023-07-24T04:38:27.038Z,79.33
2023-07-24T04:40:54.436Z,78.96
2023-07-24T04:43:21.805Z,78.94
2023-07-24T04:45:49.268Z,78.08
2023-07-24T04:48:16.610Z,77.63
2023-07-24T04:50:43.970Z,77.75
2023-07-24T04:53:11.299Z,77.64
2023-07-24T04:55:38.625Z,77.85
2023-07-24T04:58:06.603Z,77.46
2023-07-24T05:00:33.996Z,76.50
2023-07-24T05:03:01.497Z,75.42
2023-07-24T05:05:30.641Z,75.24
2023-07-24T05:07:59.338Z,74.89
2023-07-24T05:10:26.806Z,74.25
2023-07-24T05:12:57.727Z,73.32
2023-07-24T05:15:25.075Z,73.05
2023-07-24T05:17:52.425Z,72.27
2023-07-24T05:20:19.752Z,71.83
2023-07-24T05:22:47.033Z,70.88
2023-07-24T05:25:14.389Z,70.41
2023-07-24T05:27:42.974Z,69.85
2023-07-24T05:30:11.787Z,69.62
2023-07-24T05:32:39.360Z,68.45
2023-07-24T05:35:07.260Z,67.75
2023-07-24T05:37:34.690Z,67.44
2023-07-24T05:40:02.995Z,66.78
2023-07-24T05:42:30.435Z,66.90
2023-07-24T05:44:57.796Z,65.99
2023-07-24T05:47:25.185Z,66.01
2023-07-24T05:49:52.583Z,65.59
2023-07-24T05:52:19.928Z,65.07
2023-07-24T05:54:47.287Z,63.90
2023-07-24T05:57:14.590Z,62.98
2023-07-24T05:59:41.922Z,62.60
2023-07-24T06:02:10.358Z,63.13
2023-07-24T06:04:38.106Z,63.93
2023-07-24T06:07:05.563Z,63.92
2023-07-24T06:09:32.849Z,64.07
2023-07-24T06:12:00.166Z,63.74
2023-07-24T06:14:27.522Z,63.44
2023-07-24T06:16:54.982Z,63.19
2023-07-24T06:19:22.648Z,62.88
2023-07-24T06:21:49.978Z,63.14
2023-07-24T06:24:17.463Z,63.37
2023-07-24T06:26:44.888Z,63.41
2023-07-24T06:29:12.389Z,64.32
2023-07-24T06:31:39.929Z,63.58
2023-07-24T06:34:07.292Z,63.63
2023-07-24T06:36:36.813Z,63.49
2023-07-24T06:39:04.344Z,62.48
2023-07-24T06:41:31.661Z,61.98
2023-07-24T06:43:58.939Z,61.85
2023-07-24T06:46:26.266Z,62.18
2023-07-24T06:48:53.571Z,62.92
2023-07-24T06:51:20.941Z,62.54
2023-07-24T06:53:48.542Z,63.43
2023-07-24T06:56:15.874Z,62.84
2023-07-24T06:58:43.203Z,62.20
2023-07-24T07:01:10.606Z,62.08
2023-07-24T07:03:37.986Z,61.92
2023-07-24T07:06:05.444Z,62.83
2023-07-24T07:08:32.969Z,63.01
2023-07-24T07:11:01.087Z,62.36
2023-07-24T07:13:29.236Z,61.63
2023-07-24T07:15:56.770Z,61.48
2023-07-24T07:18:24.080Z,61.57
2023-07-24T07:20:53.293Z,61.25
2023-07-24T07:23:21.233Z,61.53
2023-07-24T07:25:48.678Z,61.41
2023-07-24T07:28:16.380Z,61.21
2023-07-24T07:30:45.953Z,60.31
2023-07-24T07:33:13.500Z,60.56
2023-07-24T07:35:40.854Z,60.66
2023-07-24T07:38:08.156Z,60.50
2023-07-24T07:40:35.436Z,59.85
2023-07-24T07:43:02.789Z,59.78
2023-07-24T07:45:30.201Z,59.90
2023-07-24T07:47:57.895Z,59.31
2023-07-24T07:50:25.580Z,58.86
2023-07-24T07:52:56.681Z,58.53
2023-07-24T07:55:24.073Z,58.01
2023-07-24T07:57:51.418Z,58.31
2023-07-24T08:00:19.220Z,58.96
2023-07-24T08:02:47.052Z,58.89
2023-07-24T08:05:20.210Z,58.24
2023-07-24T08:07:48.808Z,59.06
2023-07-24T08:10:17.851Z,58.20
2023-07-24T08:12:45.570Z,58.26
2023-07-24T08:15:12.967Z,58.22
2023-07-24T08:17:40.608Z,58.24
2023-07-24T08:20:08.321Z,58.85
2023-07-24T08:22:36.646Z,58.48
2023-07-24T08:25:04.621Z,58.56
2023-07-24T08:27:34.747Z,58.59
2023-07-24T08:30:07.653Z,59.12
2023-07-24T08:32:35.139Z,58.54
2023-07-24T08:35:02.594Z,57.89
2023-07-24T08:37:29.903Z,57.65
2023-07-24T08:39:57.192Z,57.51
2023-07-24T08:42:24.626Z,57.16
2023-07-24T08:44:51.947Z,56.60
2023-07-24T08:47:19.305Z,57.16
2023-07-24T08:49:46.723Z,57.84
2023-07-24T08:52:26.896Z,57.92
2023-07-24T08:55:02.118Z,56.50
2023-07-24T08:57:29.411Z,55.40
2023-07-24T08:59:56.717Z,54.96
2023-07-24T09:02:24.128Z,54.72
2023-07-24T09:04:51.507Z,55.07
2023-07-24T09:07:20.400Z,54.14
2023-07-24T09:09:50.323Z,54.09
2023-07-24T09:12:17.955Z,53.72
2023-07-24T09:14:46.439Z,53.50
2023-07-24T09:17:13.842Z,53.64
2023-07-24T09:19:41.337Z,53.22
2023-07-24T09:22:16.021Z,53.56
2023-07-24T09:24:53.468Z,53.88
2023-07-24T09:27:21.168Z,54.54
2023-07-24T09:29:48.620Z,54.20
2023-07-24T09:32:22.830Z,52.72
2023-07-24T09:34:55.522Z,53.17
2023-07-24T09:37:35.856Z,53.42
2023-07-24T09:40:06.560Z,53.94
2023-07-24T09:42:38.896Z,53.65
2023-07-24T09:45:12.489Z,51.99
2023-07-24T09:50:11.181Z,51.45
2023-07-24T09:52:39.198Z,52.63
2023-07-24T09:55:12.553Z,52.54
2023-07-24T09:57:43.843Z,50.99
2023-07-24T10:00:12.754Z,50.02
2023-07-24T10:02:40.380Z,49.44
2023-07-24T10:05:07.838Z,48.90
2023-07-24T10:07:35.130Z,49.06
2023-07-24T10:10:02.694Z,48.58
2023-07-24T10:12:31.595Z,49.76
2023-07-24T10:14:59.088Z,49.75
2023-07-24T10:17:39.916Z,48.22
2023-07-24T10:20:13.130Z,47.77
2023-07-24T10:22:43.763Z,47.17
2023-07-24T10:25:12.464Z,46.97
2023-07-24T10:27:47.605Z,48.17
2023-07-24T10:30:32.015Z,46.95
2023-07-24T10:33:06.036Z,46.92
2023-07-24T10:35:50.374Z,45.02
2023-07-24T10:38:18.109Z,45.27
2023-07-24T10:40:51.692Z,45.71
2023-07-24T10:43:19.856Z,45.07
2023-07-24T10:45:47.231Z,45.37
2023-07-24T10:48:14.701Z,45.43
2023-07-24T10:50:43.709Z,45.04
2023-07-24T10:53:12.041Z,44.96
2023-07-24T10:55:39.547Z,44.48
2023-07-24T10:58:07.308Z,43.26
2023-07-24T11:00:35.466Z,43.92
2023-07-24T11:03:02.970Z,42.62
2023-07-24T11:05:32.611Z,42.39
2023-07-24T11:07:59.977Z,41.45
2023-07-24T11:10:28.260Z,39.97
2023-07-24T11:12:55.683Z,39.59
2023-07-24T11:15:29.308Z,39.59
2023-07-24T11:17:56.877Z,38.53
2023-07-24T11:20:24.355Z,38.48
2023-07-24T11:22:54.663Z,40.22
2023-07-24T11:25:22.142Z,40.42
2023-07-24T11:27:52.496Z,41.27
2023-07-24T11:30:23.282Z,40.65
2023-07-24T11:32:50.814Z,40.90
2023-07-24T11:35:18.421Z,40.15
2023-07-24T11:37:45.979Z,39.83
2023-07-24T11:40:16.031Z,39.68
2023-07-24T11:42:46.420Z,40.70
2023-07-24T11:45:13.878Z,41.05
2023-07-24T11:47:48.925Z,40.03
2023-07-24T11:50:17.392Z,39.95
2023-07-24T11:52:46.313Z,41.04
2023-07-24T11:55:18.681Z,39.98
2023-07-24T11:58:01.966Z,39.38
2023-07-24T12:00:29.520Z,39.00
2023-07-24T12:03:01.241Z,38.84
2023-07-24T12:05:29.042Z,38.56
2023-07-24T12:07:56.709Z,39.41
2023-07-24T12:10:31.328Z,39.23
2023-07-24T12:13:02.163Z,38.09
2023-07-24T12:15:36.545Z,38.72
2023-07-24T12:18:05.426Z,38.05
2023-07-24T12:20:33.065Z,38.27
2023-07-24T12:23:00.523Z,38.31
2023-07-24T12:25:27.907Z,36.83
2023-07-24T12:27:55.248Z,37.39
2023-07-24T12:30:22.613Z,36.69
2023-07-24T12:32:50.063Z,36.32
2023-07-24T12:35:18.286Z,36.54
2023-07-24T12:37:46.854Z,35.83
2023-07-24T12:40:14.621Z,36.26
2023-07-24T12:42:42.018Z,35.79
2023-07-24T12:45:11.012Z,36.45
2023-07-24T12:47:38.818Z,36.09
2023-07-24T12:50:08.328Z,36.31
2023-07-24T12:52:36.181Z,36.51
2023-07-24T12:55:04.103Z,36.60
2023-07-24T12:57:31.509Z,36.99
2023-07-24T12:59:58.917Z,37.03
2023-07-24T13:02:26.387Z,35.80
2023-07-24T13:04:53.833Z,36.43
2023-07-24T13:07:21.520Z,36.06
2023-07-24T13:09:49.661Z,36.63
2023-07-24T13:12:17.172Z,36.07
2023-07-24T13:14:44.666Z,35.52
2023-07-24T13:17:14.287Z,34.75
2023-07-24T13:19:41.869Z,34.48
2023-07-24T13:22:09.355Z,35.13
2023-07-24T13:24:39.534Z,34.17
2023-07-24T13:27:08.434Z,33.88
2023-07-24T13:29:36.180Z,34.25
2023-07-24T13:32:03.627Z,34.06
2023-07-24T13:34:30.940Z,34.13
2023-07-24T13:36:58.402Z,33.82
2023-07-24T13:39:25.802Z,33.27
2023-07-24T13:41:53.766Z,33.34
2023-07-24T13:44:21.155Z,33.65
2023-07-24T13:46:49.299Z,32.88
2023-07-24T13:49:16.926Z,32.85
2023-07-24T13:51:47.599Z,33.48
2023-07-24T13:54:15.432Z,33.60
2023-07-24T13:56:42.854Z,34.06
2023-07-24T13:59:13.131Z,32.44
2023-07-24T14:01:49.330Z,32.51
2023-07-24T14:04:16.782Z,32.38
2023-07-24T14:06:46.535Z,33.02
2023-07-24T14:09:14.056Z,32.95
2023-07-24T14:11:41.499Z,32.58
2023-07-24T14:14:09.251Z,32.63
2023-07-24T14:16:38.950Z,31.78
2023-07-24T14:19:08.654Z,31.15
2023-07-24T14:21:36.122Z,30.62
2023-07-24T14:24:03.938Z,30.51
2023-07-24T14:26:31.348Z,31.86
2023-07-24T14:28:58.678Z,31.47
2023-07-24T14:31:26.599Z,30.78
2023-07-24T14:33:54.121Z,29.64
2023-07-24T14:36:21.530Z,28.67
2023-07-24T14:38:49.001Z,28.46
2023-07-24T14:41:16.922Z,28.75
2023-07-24T14:43:44.329Z,29.17
2023-07-24T14:46:11.721Z,28.35
2023-07-24T14:48:41.918Z,28.96
2023-07-24T14:51:09.280Z,29.02
2023-07-24T14:53:38.136Z,29.25
2023-07-24T14:56:09.981Z,30.95
2023-07-24T14:58:37.715Z,31.27
2023-07-24T15:01:05.185Z,30.47
2023-07-24T15:03:32.513Z,29.41
2023-07-24T15:06:07.100Z,28.01
2023-07-24T15:08:35.138Z,27.77
2023-07-24T15:11:04.030Z,27.26
2023-07-24T15:13:35.914Z,26.90
2023-07-24T15:16:09.003Z,27.78
2023-07-24T15:18:36.698Z,27.74
2023-07-24T15:21:04.090Z,27.87
2023-07-24T15:23:31.935Z,27.50
2023-07-24T15:25:59.848Z,27.36
2023-07-24T15:28:27.484Z,27.74
2023-07-24T15:30:55.226Z,27.05
2023-07-24T15:33:22.673Z,27.27
2023-07-24T15:35:50.793Z,26.97
2023-07-24T15:38:18.229Z,27.12
2023-07-24T15:40:45.654Z,27.56
2023-07-24T15:43:13.164Z,28.15
2023-07-24T15:45:40.728Z,28.12
2023-07-24T15:48:08.186Z,27.15
2023-07-24T15:50:35.989Z,27.69
2023-07-24T15:53:03.433Z,27.47
2023-07-24T15:55:31.275Z,27.70
2023-07-24T15:58:02.312Z,27.83
2023-07-24T16:00:29.718Z,28.46
2023-07-24T16:02:57.740Z,28.46
2023-07-24T16:05:25.190Z,29.32
2023-07-24T16:07:53.079Z,29.28
2023-07-24T16:10:22.692Z,28.65
2023-07-24T16:12:50.227Z,29.47
2023-07-24T16:15:18.216Z,29.99
2023-07-24T16:18:05.990Z,29.17
2023-07-24T16:20:35.631Z,29.24
2023-07-24T16:23:03.089Z,31.10
2023-07-24T16:25:30.377Z,30.96
2023-07-24T16:27:57.741Z,31.21
2023-07-24T16:30:27.775Z,32.32
2023-07-24T16:32:55.399Z,33.18
2023-07-24T16:35:22.940Z,34.12
2023-07-24T16:37:53.991Z,34.42
2023-07-24T16:40:21.614Z,34.73
2023-07-24T16:42:51.611Z,35.71
2023-07-24T16:47:54.413Z,36.02
2023-07-24T16:50:21.948Z,36.56
2023-07-24T16:52:49.332Z,36.78
2023-07-24T16:55:16.783Z,37.01
2023-07-24T16:57:45.338Z,37.55
2023-07-24T17:00:13.421Z,37.80
2023-07-24T17:02:41.388Z,38.61
2023-07-24T17:05:09.164Z,38.99
2023-07-24T17:07:36.572Z,38.84
2023-07-24T17:10:04.299Z,39.11
2023-07-24T17:12:32.072Z,38.82
2023-07-24T17:14:59.475Z,39.47
2023-07-24T17:17:27.980Z,39.82
2023-07-24T17:19:55.916Z,39.41
2023-07-24T17:22:23.554Z,40.14
2023-07-24T17:24:51.306Z,40.72
2023-07-24T17:27:22.581Z,41.48
2023-07-24T17:29:50.101Z,41.29
2023-07-24T17:32:23.168Z,42.52
2023-07-24T17:34:50.578Z,42.96
2023-07-24T17:37:28.370Z,42.79
2023-07-24T17:40:07.994Z,42.77
2023-07-24T17:42:37.904Z,43.66
2023-07-24T17:45:06.251Z,44.61
2023-07-24T17:47:34.024Z,45.20
2023-07-24T17:50:07.734Z,45.00
2023-07-24T17:52:36.465Z,44.92
2023-07-24T17:55:25.578Z,45.94
2023-07-24T17:57:54.440Z,45.39
2023-07-24T18:00:23.091Z,46.77
2023-07-24T18:02:51.443Z,46.46
2023-07-24T18:05:19.181Z,47.92
2023-07-24T18:07:47.617Z,47.81
2023-07-24T18:10:16.548Z,48.70
2023-07-24T18:12:45.974Z,48.60
2023-07-24T18:15:13.424Z,48.89
2023-07-24T18:17:40.824Z,49.37
2023-07-24T18:20:09.726Z,49.36
2023-07-24T18:22:37.140Z,50.08
2023-07-24T18:25:04.771Z,50.17
2023-07-24T18:27:32.435Z,50.51
2023-07-24T18:29:59.736Z,50.10
2023-07-24T18:32:27.171Z,50.16
2023-07-24T18:34:54.543Z,51.12
2023-07-24T18:37:22.018Z,51.36
2023-07-24T18:39:50.647Z,51.75
2023-07-24T18:42:18.144Z,51.54
2023-07-24T18:44:45.510Z,50.49
2023-07-24T18:47:12.820Z,50.43
2023-07-24T18:49:40.169Z,51.73
2023-07-24T18:52:08.292Z,51.19
2023-07-24T18:54:35.883Z,51.55
2023-07-24T18:57:03.449Z,51.15
2023-07-24T18:59:30.895Z,51.37
2023-07-24T19:01:58.263Z,51.31
2023-07-24T19:04:25.733Z,51.47
2023-07-24T19:06:53.318Z,51.27
2023-07-24T19:09:20.731Z,51.68
2023-07-24T19:11:48.790Z,52.68
2023-07-24T19:14:16.765Z,53.10
2023-07-24T19:16:44.562Z,53.09
2023-07-24T19:19:11.973Z,53.20
2023-07-24T19:21:39.272Z,53.54
2023-07-24T19:24:07.659Z,53.45
2023-07-24T19:26:35.081Z,53.63
2023-07-24T19:29:02.469Z,53.66
2023-07-24T19:31:30.359Z,54.11
2023-07-24T19:33:58.026Z,54.64
2023-07-24T19:36:25.501Z,54.59
2023-07-24T19:38:52.825Z,54.28
2023-07-24T19:41:20.211Z,54.26
2023-07-24T19:43:47.664Z,54.04
2023-07-24T19:46:15.739Z,53.84
2023-07-24T19:48:43.463Z,55.06
2023-07-24T19:51:11.116Z,55.85
2023-07-24T19:53:38.927Z,56.74
2023-07-24T19:56:06.435Z,57.64
2023-07-24T19:58:37.004Z,57.84
2023-07-24T20:01:05.219Z,58.09
2023-07-24T20:03:32.793Z,58.42
2023-07-24T20:06:04.246Z,58.81
2023-07-24T20:08:37.244Z,59.04
2023-07-24T20:11:06.996Z,59.19
2023-07-24T20:13:34.847Z,59.48
2023-07-24T20:16:02.418Z,59.53
2023-07-24T20:18:29.969Z,59.00
2023-07-24T20:20:57.675Z,59.21
2023-07-24T20:23:25.191Z,58.83
2023-07-24T20:25:52.655Z,59.27
2023-07-24T20:28:21.645Z,59.29
2023-07-24T20:30:49.278Z,58.81
2023-07-24T20:33:16.921Z,58.39
2023-07-24T20:35:47.728Z,57.33
2023-07-24T20:38:28.390Z,56.90
2023-07-24T20:40:59.287Z,56.95
2023-07-24T20:43:26.977Z,57.12
2023-07-24T20:45:54.833Z,57.51
2023-07-24T20:48:23.038Z,57.90
2023-07-24T20:50:50.485Z,57.79
2023-07-24T20:53:17.852Z,57.84
2023-07-24T20:55:45.185Z,58.29
2023-07-24T20:58:12.494Z,58.55
2023-07-24T21:00:43.242Z,58.13
2023-07-24T21:03:11.034Z,58.82
2023-07-24T21:05:38.673Z,58.70
2023-07-24T21:08:06.602Z,58.13
2023-07-24T21:10:34.072Z,58.22
2023-07-24T21:13:01.572Z,58.46
2023-07-24T21:15:28.952Z,58.97
2023-07-24T21:17:56.348Z,58.45
2023-07-24T21:20:24.029Z,58.49
2023-07-24T21:22:51.391Z,58.72
2023-07-24T21:25:19.488Z,58.53
2023-07-24T21:27:46.838Z,58.39
2023-07-24T21:30:14.343Z,58.80
2023-07-24T21:32:41.808Z,59.18
2023-07-24T21:35:10.875Z,59.22
2023-07-24T21:37:40.853Z,59.17
2023-07-24T21:40:09.326Z,58.13
2023-07-24T21:42:36.659Z,58.14
2023-07-24T21:45:04.299Z,58.17
2023-07-24T21:47:31.763Z,57.69
2023-07-24T21:49:59.527Z,57.57
2023-07-24T21:52:27.237Z,56.95
2023-07-24T21:54:54.550Z,57.30
2023-07-24T21:57:22.735Z,57.54
2023-07-24T21:59:50.319Z,57.52
2023-07-24T22:02:17.688Z,58.06
2023-07-24T22:04:45.094Z,57.82
2023-07-24T22:07:12.456Z,57.86
2023-07-24T22:09:39.812Z,58.17
2023-07-24T22:12:08.406Z,57.89
2023-07-24T22:14:35.925Z,58.05
2023-07-24T22:17:03.475Z,57.98
2023-07-24T22:19:31.027Z,57.54
2023-07-24T22:21:58.490Z,57.42
2023-07-24T22:24:25.915Z,57.37
2023-07-24T22:26:53.524Z,57.05
2023-07-24T22:29:20.967Z,57.01
2023-07-24T22:31:49.092Z,56.33
2023-07-24T22:34:16.789Z,55.09
2023-07-24T22:36:44.754Z,55.33
2023-07-24T22:39:12.088Z,54.93
2023-07-24T22:41:39.652Z,54.71
2023-07-24T22:44:07.563Z,55.43
2023-07-24T22:46:35.024Z,55.97
2023-07-24T22:49:03.632Z,55.84
2023-07-24T22:51:31.341Z,56.34
2023-07-24T22:53:59.154Z,57.22
2023-07-24T22:56:28.433Z,57.43
2023-07-24T22:59:07.891Z,57.51
2023-07-24T23:01:35.479Z,58.03
2023-07-24T23:04:03.041Z,57.97
2023-07-24T23:06:30.383Z,57.14
2023-07-24T23:08:57.827Z,57.05
2023-07-24T23:11:25.203Z,56.86
2023-07-24T23:13:53.498Z,56.98
2023-07-24T23:16:20.991Z,57.09
2023-07-24T23:18:48.410Z,57.56
2023-07-24T23:21:15.723Z,57.51
2023-07-24T23:23:43.109Z,57.30
2023-07-24T23:26:10.804Z,57.39
2023-07-24T23:28:38.179Z,57.27
2023-07-24T23:31:06.117Z,57.61
2023-07-24T23:33:34.539Z,57.88
2023-07-24T23:36:02.627Z,58.42
2023-07-24T23:38:30.342Z,58.57
2023-07-24T23:41:01.106Z,58.93
2023-07-24T23:43:28.491Z,59.04
2023-07-24T23:45:55.808Z,59.57
2023-07-24T23:48:24.407Z,59.79
2023-07-24T23:50:56.134Z,60.05
2023-07-24T23:53:23.834Z,60.35
2023-07-24T23:55:54.621Z,60.58
2023-07-24T23:58:22.008Z,61.12
